createdAt,value
2019-04-26T00:00:54.982Z,2.83
2019-04-26T00:03:02.405Z,1.90
2019-04-26T00:05:07.812Z,0.70
2019-04-26T00:07:12.764Z,3.43
2019-04-26T00:09:38.606Z,3.67
2019-04-26T00:11:59.215Z,2.63
2019-04-26T00:14:31.172Z,1.50
2019-04-26T00:16:43.834Z,4.43
2019-04-26T00:18:47.892Z,1.47
2019-04-26T00:20:51.877Z,1.00
2019-04-26T00:22:55.806Z,2.40
2019-04-26T00:24:59.721Z,2.43
2019-04-26T00:27:03.636Z,2.70
2019-04-26T00:29:07.471Z,3.93
2019-04-26T00:31:12.869Z,1.37
2019-04-26T00:33:17.731Z,2.47
2019-04-26T00:35:22.635Z,2.63
2019-04-26T00:37:26.473Z,0.97
2019-04-26T00:39:30.267Z,2.33
2019-04-26T00:41:34.235Z,0.67
2019-04-26T00:43:38.644Z,1.40
2019-04-26T00:45:45.908Z,3.83
2019-04-26T00:47:51.760Z,1.67
2019-04-26T00:49:56.264Z,0.83
2019-04-26T00:52:00.494Z,1.13
2019-04-26T00:54:06.858Z,1.60
2019-04-26T00:56:12.396Z,1.10
2019-04-26T00:58:18.458Z,3.43
2019-04-26T01:00:23.731Z,2.93
2019-04-26T01:02:34.383Z,0.83
2019-04-26T01:04:38.195Z,4.13
2019-04-26T01:06:43.670Z,2.27
2019-04-26T01:08:47.419Z,1.03
2019-04-26T01:10:51.218Z,2.53
2019-04-26T01:12:55.027Z,2.87
2019-04-26T01:14:58.816Z,1.63
2019-04-26T01:17:03.541Z,2.03
2019-04-26T01:19:11.055Z,2.17
2019-04-26T01:21:19.170Z,0.67
2019-04-26T01:23:25.333Z,1.80
2019-04-26T01:25:46.137Z,1.67
2019-04-26T01:27:50.348Z,0.60
2019-04-26T01:29:57.382Z,1.53
2019-04-26T01:32:07.383Z,1.37
2019-04-26T01:34:11.538Z,0.80
2019-04-26T01:36:16.640Z,1.80
2019-04-26T01:38:21.812Z,2.50
2019-04-26T01:40:29.311Z,1.43
2019-04-26T01:43:08.062Z,0.60
2019-04-26T01:45:34.048Z,0.87
2019-04-26T01:47:39.020Z,1.53
2019-04-26T01:49:44.274Z,0.57
2019-04-26T01:52:03.028Z,0.80
2019-04-26T01:54:08.726Z,4.53
2019-04-26T01:56:13.321Z,3.83
2019-04-26T01:58:17.295Z,0.93
2019-04-26T02:00:41.567Z,1.50
2019-04-26T02:02:54.028Z,2.17
2019-04-26T02:05:00.503Z,0.80
2019-04-26T02:07:05.037Z,1.50
2019-04-26T02:09:11.442Z,1.00
2019-04-26T02:11:15.462Z,3.70
2019-04-26T02:13:20.522Z,1.00
2019-04-26T02:15:27.585Z,1.13
2019-04-26T02:17:33.596Z,1.73
2019-04-26T02:19:37.798Z,0.77
2019-04-26T02:21:52.935Z,1.03
2019-04-26T02:24:04.658Z,2.87
2019-04-26T02:26:27.034Z,1.23
2019-04-26T02:28:30.901Z,2.00
2019-04-26T02:30:36.718Z,0.80
2019-04-26T02:32:41.126Z,1.90
2019-04-26T02:34:46.180Z,2.63
2019-04-26T02:36:57.719Z,1.10
2019-04-26T02:38:59.696Z,1.73
2019-04-26T02:41:03.618Z,0.80
2019-04-26T02:43:09.547Z,2.63
2019-04-26T02:46:06.153Z,0.77
2019-04-26T02:48:21.689Z,1.00
2019-04-26T02:50:33.275Z,2.63
2019-04-26T02:52:47.270Z,3.67
2019-04-26T02:55:04.670Z,1.40
2019-04-26T02:57:08.851Z,0.70
2019-04-26T02:59:42.573Z,1.50
2019-04-26T03:01:48.417Z,2.63
2019-04-26T03:03:53.712Z,1.83
2019-04-26T03:05:58.757Z,1.73
2019-04-26T03:08:16.500Z,1.47
2019-04-26T03:10:24.614Z,1.23
2019-04-26T03:12:34.428Z,1.83
2019-04-26T03:15:13.463Z,2.67
2019-04-26T03:17:43.051Z,2.30
2019-04-26T03:19:57.314Z,2.43
2019-04-26T03:22:40.840Z,0.90
2019-04-26T03:24:56.242Z,1.33
2019-04-26T03:27:27.920Z,2.63
2019-04-26T03:29:43.758Z,0.80
2019-04-26T03:32:08.540Z,1.37
2019-04-26T03:34:53.131Z,1.07
2019-04-26T03:37:36.646Z,1.10
2019-04-26T03:39:56.465Z,1.03
2019-04-26T03:42:16.380Z,1.20
2019-04-26T03:44:33.051Z,3.97
2019-04-26T03:46:55.038Z,0.83
2019-04-26T03:49:44.183Z,1.27
2019-04-26T03:52:13.508Z,3.03
2019-04-26T03:54:21.701Z,1.87
2019-04-26T03:56:43.571Z,0.87
2019-04-26T03:59:30.266Z,1.83
2019-04-26T04:01:43.204Z,1.47
2019-04-26T04:03:56.644Z,1.83
2019-04-26T04:06:04.748Z,1.27
2019-04-26T04:08:13.011Z,0.70
2019-04-26T04:10:22.229Z,1.43
2019-04-26T04:12:44.479Z,1.37
2019-04-26T04:15:06.178Z,1.70
2019-04-26T04:17:27.468Z,2.10
2019-04-26T04:20:21.719Z,1.43
2019-04-26T04:22:29.168Z,1.00
2019-04-26T04:24:56.335Z,1.07
2019-04-26T04:27:11.324Z,2.43
2019-04-26T04:29:53.447Z,1.33
2019-04-26T04:31:57.058Z,3.07
2019-04-26T04:34:27.261Z,2.87
2019-04-26T04:36:42.190Z,3.00
2019-04-26T04:39:12.450Z,1.70
2019-04-26T04:41:27.881Z,1.93
2019-04-26T04:43:41.952Z,6.87
2019-04-26T04:46:33.379Z,2.10
2019-04-26T04:48:51.319Z,1.10
2019-04-26T04:51:09.869Z,1.40
2019-04-26T04:53:30.857Z,2.00
2019-04-26T04:55:52.110Z,1.50
2019-04-26T04:58:09.711Z,2.00
2019-04-26T05:00:51.763Z,1.30
2019-04-26T05:03:30.773Z,2.77
2019-04-26T05:06:10.744Z,1.13
2019-04-26T05:08:49.682Z,1.50
2019-04-26T05:11:06.934Z,2.30
2019-04-26T05:13:48.389Z,1.97
2019-04-26T05:16:16.838Z,1.67
2019-04-26T05:18:35.514Z,2.60
2019-04-26T05:21:12.329Z,1.60
2019-04-26T05:23:47.144Z,4.00
2019-04-26T05:26:30.445Z,3.03
2019-04-26T05:29:08.843Z,4.67
2019-04-26T05:31:59.911Z,2.77
2019-04-26T05:34:20.015Z,1.40
2019-04-26T05:36:47.765Z,2.73
2019-04-26T05:39:15.686Z,1.83
2019-04-26T05:41:59.936Z,2.87
2019-04-26T05:44:23.892Z,6.33
2019-04-26T05:47:26.271Z,2.10
2019-04-26T05:50:28.351Z,2.43
2019-04-26T05:53:27.198Z,1.37
2019-04-26T05:56:14.808Z,2.00
2019-04-26T05:58:44.481Z,2.17
2019-04-26T06:01:52.098Z,5.57
2019-04-26T06:04:46.709Z,2.10
2019-04-26T06:07:07.795Z,2.97
2019-04-26T06:09:50.356Z,3.07
2019-04-26T06:12:16.720Z,1.70
2019-04-26T06:14:48.932Z,2.00
2019-04-26T06:17:38.562Z,1.53
2019-04-26T06:20:05.465Z,3.67
2019-04-26T06:22:27.631Z,3.30
2019-04-26T06:25:10.365Z,3.00
2019-04-26T06:27:39.993Z,5.10
2019-04-26T06:29:56.798Z,4.77
2019-04-26T06:32:10.641Z,4.33
2019-04-26T06:34:34.507Z,4.57
2019-04-26T06:36:57.587Z,2.23
2019-04-26T06:39:30.196Z,1.63
2019-04-26T06:42:13.942Z,1.60
2019-04-26T06:44:23.545Z,2.17
2019-04-26T06:47:16.981Z,2.30
2019-04-26T06:50:15.053Z,2.33
2019-04-26T06:52:22.570Z,3.40
2019-04-26T06:54:40.791Z,4.97
2019-04-26T06:57:24.829Z,2.13
2019-04-26T06:59:59.183Z,1.77
2019-04-26T07:02:11.420Z,3.63
2019-04-26T07:04:26.404Z,1.63
2019-04-26T07:06:35.507Z,5.90
2019-04-26T07:08:57.722Z,3.43
2019-04-26T07:11:46.594Z,4.87
2019-04-26T07:14:36.750Z,1.80
2019-04-26T07:17:00.750Z,2.07
2019-04-26T07:19:21.397Z,2.73
2019-04-26T07:21:42.037Z,2.33
2019-04-26T07:24:36.244Z,3.23
2019-04-26T07:27:18.216Z,4.60
2019-04-26T07:29:57.557Z,2.27
2019-04-26T07:32:15.063Z,1.63
2019-04-26T07:34:43.315Z,6.50
2019-04-26T07:37:25.358Z,2.47
2019-04-26T07:39:52.979Z,2.70
2019-04-26T07:42:20.718Z,10.20
2019-04-26T07:44:41.023Z,2.93
2019-04-26T07:47:15.447Z,5.63
2019-04-26T07:49:52.118Z,2.80
2019-04-26T07:52:37.537Z,3.70
2019-04-26T07:55:20.982Z,9.50
2019-04-26T07:57:55.306Z,2.20
2019-04-26T08:00:18.991Z,3.07
2019-04-26T08:03:02.068Z,5.60
2019-04-26T08:05:17.891Z,4.60
2019-04-26T08:07:32.170Z,5.03
2019-04-26T08:09:39.011Z,2.70
2019-04-26T08:11:54.316Z,4.40
2019-04-26T08:14:12.624Z,4.73
2019-04-26T08:16:29.071Z,4.00
2019-04-26T08:18:40.758Z,3.47
2019-04-26T08:20:52.760Z,3.93
2019-04-26T08:23:02.739Z,2.73
2019-04-26T08:25:10.422Z,6.50
2019-04-26T08:27:23.694Z,3.63
2019-04-26T08:29:29.830Z,10.33
2019-04-26T08:31:37.730Z,5.00
2019-04-26T08:33:48.861Z,9.00
2019-04-26T08:35:56.373Z,10.30
2019-04-26T08:38:18.941Z,4.37
2019-04-26T08:40:26.535Z,4.93
2019-04-26T08:42:26.282Z,5.20
2019-04-26T08:44:59.737Z,6.57
2019-04-26T08:47:26.313Z,4.53
2019-04-26T08:50:04.118Z,5.30
2019-04-26T08:52:14.686Z,4.43
2019-04-26T08:54:22.330Z,3.83
2019-04-26T08:56:32.334Z,8.53
2019-04-26T08:58:40.238Z,5.53
2019-04-26T09:01:00.524Z,10.83
2019-04-26T09:03:15.265Z,4.07
2019-04-26T09:05:35.261Z,5.03
2019-04-26T09:07:42.578Z,5.20
2019-04-26T09:09:57.239Z,7.67
2019-04-26T09:11:59.841Z,5.47
2019-04-26T09:14:05.812Z,5.60
2019-04-26T09:16:16.025Z,8.20
2019-04-26T09:18:19.856Z,4.27
2019-04-26T09:20:29.524Z,4.53
2019-04-26T09:23:03.941Z,7.80
2019-04-26T09:25:18.864Z,5.43
2019-04-26T09:27:32.537Z,5.93
2019-04-26T09:29:49.043Z,5.00
2019-04-26T09:31:56.221Z,9.70
2019-04-26T09:34:06.361Z,7.77
2019-04-26T09:36:09.969Z,9.50
2019-04-26T09:38:13.754Z,4.73
2019-04-26T09:40:21.523Z,7.83
2019-04-26T09:42:46.982Z,4.83
2019-04-26T09:45:16.831Z,3.07
2019-04-26T09:47:47.906Z,4.63
2019-04-26T09:50:06.159Z,5.23
2019-04-26T09:52:16.027Z,6.37
2019-04-26T09:54:19.807Z,5.37
2019-04-26T09:56:23.615Z,4.33
2019-04-26T09:58:30.721Z,4.27
2019-04-26T10:00:34.141Z,5.20
2019-04-26T10:02:37.877Z,5.97
2019-04-26T10:04:41.684Z,5.60
2019-04-26T10:06:45.498Z,4.97
2019-04-26T10:08:52.424Z,6.30
2019-04-26T10:10:55.896Z,6.23
2019-04-26T10:13:06.063Z,6.90
2019-04-26T10:15:22.531Z,4.30
2019-04-26T10:17:32.189Z,4.50
2019-04-26T10:19:55.547Z,4.57
2019-04-26T10:22:01.130Z,6.27
2019-04-26T10:24:08.487Z,7.40
2019-04-26T10:26:12.454Z,4.33
2019-04-26T10:28:17.111Z,4.27
2019-04-26T10:30:22.049Z,5.10
2019-04-26T10:32:27.931Z,4.10
2019-04-26T10:34:31.746Z,5.17
2019-04-26T10:36:35.571Z,4.73
2019-04-26T10:38:39.364Z,4.03
2019-04-26T10:40:44.084Z,4.77
2019-04-26T10:42:47.923Z,3.87
2019-04-26T10:44:51.768Z,4.10
2019-04-26T10:46:55.983Z,4.70
2019-04-26T10:49:08.560Z,4.20
2019-04-26T10:51:07.269Z,3.97
2019-04-26T10:53:19.665Z,3.53
2019-04-26T10:55:38.249Z,4.33
2019-04-26T10:57:44.686Z,7.20
2019-04-26T10:59:59.403Z,3.53
2019-04-26T11:02:05.201Z,7.70
2019-04-26T11:04:09.955Z,3.17
2019-04-26T11:06:14.747Z,3.77
2019-04-26T11:08:18.488Z,5.07
2019-04-26T11:10:24.458Z,3.33
2019-04-26T11:12:28.485Z,2.20
2019-04-26T11:14:32.238Z,5.13
2019-04-26T11:16:41.261Z,2.07
2019-04-26T11:18:44.991Z,3.53
2019-04-26T11:20:49.788Z,4.17
2019-04-26T11:22:53.839Z,3.13
2019-04-26T11:24:57.679Z,6.43
2019-04-26T11:27:01.556Z,3.97
2019-04-26T11:29:07.384Z,1.93
2019-04-26T11:31:11.238Z,1.87
2019-04-26T11:33:14.984Z,1.23
2019-04-26T11:35:18.877Z,3.60
2019-04-26T11:37:23.711Z,2.20
2019-04-26T11:39:28.232Z,3.00
2019-04-26T11:41:34.037Z,2.00
2019-04-26T11:43:38.572Z,2.33
2019-04-26T11:45:45.384Z,3.53
2019-04-26T11:47:56.024Z,2.50
2019-04-26T11:49:55.276Z,2.63
2019-04-26T11:52:02.920Z,1.63
2019-04-26T11:54:05.753Z,4.77
2019-04-26T11:56:09.639Z,1.57
2019-04-26T11:58:13.415Z,4.43
2019-04-26T12:00:27.900Z,1.80
2019-04-26T12:02:36.705Z,2.37
2019-04-26T12:04:59.580Z,2.47
2019-04-26T12:07:25.384Z,3.53
2019-04-26T12:09:37.130Z,1.10
2019-04-26T12:11:49.375Z,1.53
2019-04-26T12:13:46.622Z,1.67
2019-04-26T12:15:50.398Z,6.30
2019-04-26T12:17:58.675Z,2.13
2019-04-26T12:20:00.738Z,1.50
2019-04-26T12:22:08.464Z,4.40
2019-04-26T12:24:10.224Z,1.97
2019-04-26T12:26:17.457Z,1.60
2019-04-26T12:28:19.571Z,1.53
2019-04-26T12:30:26.587Z,2.77
2019-04-26T12:32:28.919Z,1.60
2019-04-26T12:34:33.748Z,4.27
2019-04-26T12:36:37.464Z,1.97
2019-04-26T12:38:41.243Z,4.33
2019-04-26T12:40:46.113Z,1.53
2019-04-26T12:42:50.573Z,3.30
2019-04-26T12:45:02.107Z,2.63
2019-04-26T12:47:19.476Z,2.13
2019-04-26T12:49:24.233Z,2.10
2019-04-26T12:51:28.914Z,2.30
2019-04-26T12:53:33.001Z,1.50
2019-04-26T12:55:37.846Z,2.10
2019-04-26T12:57:42.442Z,2.57
2019-04-26T12:59:46.311Z,4.13
2019-04-26T13:01:51.177Z,1.70
2019-04-26T13:04:06.860Z,3.80
2019-04-26T13:06:10.759Z,4.30
2019-04-26T13:08:16.906Z,1.00
2019-04-26T13:10:46.916Z,1.53
2019-04-26T13:13:15.593Z,1.57
2019-04-26T13:16:21.537Z,4.37
2019-04-26T13:18:23.395Z,2.57
2019-04-26T13:20:30.210Z,2.63
2019-04-26T13:22:45.367Z,2.93
2019-04-26T13:24:40.844Z,6.07
2019-04-26T13:26:44.768Z,1.87
2019-04-26T13:28:52.457Z,2.50
2019-04-26T13:30:55.142Z,1.73
2019-04-26T13:32:59.959Z,2.60
2019-04-26T13:35:07.120Z,2.50
2019-04-26T13:37:09.479Z,1.70
2019-04-26T13:39:17.314Z,2.67
2019-04-26T13:41:18.933Z,2.23
2019-04-26T13:43:26.911Z,2.67
2019-04-26T13:45:49.913Z,2.70
2019-04-26T13:48:15.895Z,1.93
2019-04-26T13:50:29.287Z,3.33
2019-04-26T13:52:34.089Z,3.10
2019-04-26T13:54:38.974Z,3.13
2019-04-26T13:56:42.809Z,2.40
2019-04-26T13:58:46.613Z,3.87
2019-04-26T14:00:50.432Z,2.13
2019-04-26T14:02:54.213Z,1.87
2019-04-26T14:04:58.938Z,2.53
2019-04-26T14:07:02.769Z,3.97
2019-04-26T14:09:08.737Z,1.47
2019-04-26T14:11:12.532Z,2.63
2019-04-26T14:13:16.303Z,2.93
2019-04-26T14:15:20.190Z,2.67
2019-04-26T14:17:26.026Z,5.00
2019-04-26T14:19:31.533Z,5.00
2019-04-26T14:21:35.311Z,2.30
2019-04-26T14:24:05.175Z,2.80
2019-04-26T14:26:12.234Z,2.57
2019-04-26T14:28:20.386Z,5.97
2019-04-26T14:30:22.572Z,3.10
2019-04-26T14:32:27.320Z,7.00
2019-04-26T14:34:31.111Z,3.70
2019-04-26T14:36:34.915Z,3.37
2019-04-26T14:38:40.083Z,2.50
2019-04-26T14:40:45.557Z,2.47
2019-04-26T14:42:49.540Z,2.10
2019-04-26T14:44:54.232Z,3.40
2019-04-26T14:46:59.041Z,6.37
2019-04-26T14:49:05.694Z,4.10
2019-04-26T14:51:12.094Z,4.57
2019-04-26T14:53:14.041Z,4.17
2019-04-26T14:55:21.297Z,2.00
2019-04-26T14:57:28.981Z,2.80
2019-04-26T14:59:46.955Z,3.97
2019-04-26T15:01:59.161Z,3.87
2019-04-26T15:04:20.950Z,3.97
2019-04-26T15:06:28.796Z,2.80
2019-04-26T15:08:34.120Z,4.10
2019-04-26T15:10:45.821Z,3.43
2019-04-26T15:12:46.957Z,3.03
2019-04-26T15:14:53.785Z,7.23
2019-04-26T15:16:55.745Z,3.03
2019-04-26T15:18:59.483Z,4.00
2019-04-26T15:21:05.391Z,4.07
2019-04-26T15:23:13.131Z,5.70
2019-04-26T15:25:16.728Z,4.50
2019-04-26T15:27:20.519Z,3.80
2019-04-26T15:29:27.027Z,7.53
2019-04-26T15:31:29.879Z,4.53
2019-04-26T15:33:36.047Z,8.33
2019-04-26T15:35:40.033Z,4.53
2019-04-26T15:37:44.766Z,3.77
2019-04-26T15:40:08.520Z,4.60
2019-04-26T15:42:29.220Z,5.03
2019-04-26T15:44:41.363Z,3.37
2019-04-26T15:47:08.091Z,6.27
2019-04-26T15:49:37.387Z,3.27
2019-04-26T15:51:42.674Z,3.07
2019-04-26T15:53:48.749Z,4.27
2019-04-26T15:55:52.497Z,3.13
2019-04-26T15:57:56.276Z,12.47
2019-04-26T16:00:03.995Z,4.43
2019-04-26T16:02:07.706Z,3.77
2019-04-26T16:04:17.366Z,3.10
2019-04-26T16:06:25.935Z,8.67
2019-04-26T16:08:33.899Z,5.97
2019-04-26T16:10:38.379Z,3.30
2019-04-26T16:12:42.247Z,4.03
2019-04-26T16:14:46.153Z,2.97
2019-04-26T16:16:52.450Z,20.20
2019-04-26T16:18:57.296Z,32.63
2019-04-26T16:21:01.970Z,21.97
2019-04-26T16:23:08.853Z,10.77
2019-04-26T16:25:13.937Z,11.47
2019-04-26T16:27:17.679Z,7.63
2019-04-26T16:29:33.301Z,6.33
2019-04-26T16:31:48.350Z,5.83
2019-04-26T16:33:54.885Z,3.23
2019-04-26T16:36:02.702Z,4.60
2019-04-26T16:38:23.088Z,3.00
2019-04-26T16:40:26.894Z,4.30
2019-04-26T16:42:31.708Z,3.67
2019-04-26T16:44:35.512Z,3.40
2019-04-26T16:46:39.340Z,4.53
2019-04-26T16:48:44.508Z,3.03
2019-04-26T16:50:48.378Z,3.03
2019-04-26T16:52:52.168Z,4.07
2019-04-26T16:55:02.469Z,5.30
2019-04-26T16:57:06.545Z,6.77
2019-04-26T16:59:07.041Z,5.10
2019-04-26T17:01:14.949Z,6.37
2019-04-26T17:03:18.358Z,3.30
2019-04-26T17:05:44.005Z,3.10
2019-04-26T17:07:29.715Z,3.50
2019-04-26T17:09:54.799Z,2.20
2019-04-26T17:11:41.403Z,2.10
2019-04-26T17:13:50.569Z,2.73
2019-04-26T17:15:51.965Z,3.83
2019-04-26T17:17:56.734Z,2.30
2019-04-26T17:20:02.493Z,2.43
2019-04-26T17:22:40.031Z,2.83
2019-04-26T17:24:53.386Z,1.83
2019-04-26T17:27:00.419Z,3.93
2019-04-26T17:29:06.312Z,2.30
2019-04-26T17:31:10.143Z,1.73
2019-04-26T17:33:13.929Z,3.00
2019-04-26T17:35:17.749Z,2.67
2019-04-26T17:37:25.775Z,1.70
2019-04-26T17:39:27.113Z,3.53
2019-04-26T17:41:33.272Z,3.30
2019-04-26T17:43:42.300Z,3.33
2019-04-26T17:45:44.194Z,4.27
2019-04-26T17:47:50.685Z,1.90
2019-04-26T17:49:57.459Z,3.20
2019-04-26T17:52:01.900Z,3.00
2019-04-26T17:54:33.834Z,2.90
2019-04-26T17:56:13.405Z,2.43
2019-04-26T17:58:29.109Z,4.73
2019-04-26T18:00:27.012Z,4.00
2019-04-26T18:02:41.228Z,2.33
2019-04-26T18:04:40.512Z,2.20
2019-04-26T18:06:46.909Z,3.30
2019-04-26T18:08:52.805Z,3.70
2019-04-26T18:10:55.690Z,3.60
2019-04-26T18:13:00.461Z,4.10
2019-04-26T18:15:09.379Z,4.47
2019-04-26T18:17:19.210Z,3.10
2019-04-26T18:19:35.798Z,2.70
2019-04-26T18:21:59.911Z,2.30
2019-04-26T18:24:02.950Z,1.77
2019-04-26T18:26:06.753Z,3.10
2019-04-26T18:28:13.249Z,2.53
2019-04-26T18:30:16.440Z,2.67
2019-04-26T18:32:21.525Z,2.53
2019-04-26T18:34:25.827Z,2.47
2019-04-26T18:36:31.979Z,2.30
2019-04-26T18:38:35.223Z,4.13
2019-04-26T18:40:57.150Z,3.83
2019-04-26T18:42:44.448Z,3.87
2019-04-26T18:44:48.943Z,3.33
2019-04-26T18:47:04.479Z,2.83
2019-04-26T18:49:11.339Z,4.43
2019-04-26T18:51:14.810Z,3.43
2019-04-26T18:53:48.094Z,3.23
2019-04-26T18:55:53.942Z,4.13
2019-04-26T18:58:01.668Z,6.30
2019-04-26T19:00:06.751Z,4.73
2019-04-26T19:02:11.388Z,4.63
2019-04-26T19:04:16.136Z,5.73
2019-04-26T19:06:29.788Z,5.17
2019-04-26T19:08:27.171Z,3.57
2019-04-26T19:10:34.158Z,5.07
2019-04-26T19:12:37.615Z,3.37
2019-04-26T19:15:07.167Z,4.33
2019-04-26T19:17:40.983Z,5.60
2019-04-26T19:19:57.161Z,3.93
2019-04-26T19:22:03.408Z,4.90
2019-04-26T19:24:11.934Z,5.70
2019-04-26T19:26:13.653Z,4.63
2019-04-26T19:28:18.050Z,4.17
2019-04-26T19:30:22.259Z,6.03
2019-04-26T19:32:26.203Z,3.80
2019-04-26T19:34:30.380Z,6.33
2019-04-26T19:36:35.031Z,4.57
2019-04-26T19:38:38.881Z,7.80
2019-04-26T19:40:46.370Z,3.80
2019-04-26T19:42:51.998Z,5.60
2019-04-26T19:45:09.519Z,4.30
2019-04-26T19:47:09.237Z,4.83
2019-04-26T19:49:36.782Z,3.30
2019-04-26T19:52:00.524Z,4.13
2019-04-26T19:54:23.235Z,4.60
2019-04-26T19:56:42.443Z,4.73
2019-04-26T19:58:50.703Z,3.50
2019-04-26T20:00:53.097Z,8.10
2019-04-26T20:02:56.872Z,5.10
2019-04-26T20:05:02.445Z,3.70
2019-04-26T20:07:06.366Z,5.70
2019-04-26T20:09:11.885Z,4.67
2019-04-26T20:11:18.709Z,3.50
2019-04-26T20:13:22.519Z,7.37
2019-04-26T20:15:28.645Z,5.40
2019-04-26T20:17:31.805Z,7.30
2019-04-26T20:19:37.573Z,6.43
2019-04-26T20:21:41.458Z,4.27
2019-04-26T20:23:47.436Z,6.13
2019-04-26T20:25:53.080Z,5.37
2019-04-26T20:27:59.785Z,7.73
2019-04-26T20:30:03.449Z,6.40
2019-04-26T20:32:26.317Z,5.37
2019-04-26T20:34:32.126Z,6.33
2019-04-26T20:36:40.641Z,4.23
2019-04-26T20:38:45.728Z,4.53
2019-04-26T20:40:47.672Z,4.60
2019-04-26T20:42:57.291Z,4.70
2019-04-26T20:44:58.117Z,6.77
2019-04-26T20:47:03.401Z,5.43
2019-04-26T20:49:09.077Z,4.37
2019-04-26T20:51:12.774Z,4.57
2019-04-26T20:53:16.595Z,3.60
2019-04-26T20:55:25.257Z,3.90
2019-04-26T20:57:30.468Z,4.90
2019-04-26T20:59:39.363Z,5.20
2019-04-26T21:01:46.460Z,4.97
2019-04-26T21:03:48.806Z,5.50
2019-04-26T21:05:58.856Z,6.73
2019-04-26T21:07:58.242Z,5.50
2019-04-26T21:10:02.159Z,4.87
2019-04-26T21:12:07.437Z,5.37
2019-04-26T21:14:12.327Z,5.93
2019-04-26T21:16:16.327Z,6.23
2019-04-26T21:18:21.136Z,4.63
2019-04-26T21:20:27.652Z,5.60
2019-04-26T21:22:32.271Z,6.50
2019-04-26T21:24:38.451Z,5.60
2019-04-26T21:27:02.743Z,6.50
2019-04-26T21:29:24.132Z,6.03
2019-04-26T21:31:32.772Z,6.20
2019-04-26T21:33:47.629Z,6.07
2019-04-26T21:36:10.343Z,6.70
2019-04-26T21:38:29.727Z,5.53
2019-04-26T21:40:34.970Z,6.07
2019-04-26T21:42:38.790Z,6.97
2019-04-26T21:44:44.706Z,7.73
2019-04-26T21:46:49.689Z,6.90
2019-04-26T21:48:53.679Z,6.90
2019-04-26T21:50:57.445Z,6.10
2019-04-26T21:53:04.388Z,7.27
2019-04-26T21:55:07.092Z,6.37
2019-04-26T21:57:11.180Z,6.90
2019-04-26T21:59:14.921Z,6.90
2019-04-26T22:01:24.837Z,9.03
2019-04-26T22:03:29.038Z,6.57
2019-04-26T22:05:35.271Z,8.43
2019-04-26T22:07:43.766Z,8.43
2019-04-26T22:10:05.139Z,7.83
2019-04-26T22:12:13.154Z,7.47
2019-04-26T22:14:23.532Z,7.67
2019-04-26T22:16:42.678Z,7.13
2019-04-26T22:18:58.037Z,9.90
2019-04-26T22:21:10.579Z,7.67
2019-04-26T22:23:36.409Z,7.50
2019-04-26T22:25:46.651Z,8.70
2019-04-26T22:27:54.024Z,7.87
2019-04-26T22:29:56.058Z,9.13
2019-04-26T22:31:59.892Z,7.87
2019-04-26T22:34:07.349Z,7.03
2019-04-26T22:36:09.467Z,7.90
2019-04-26T22:38:13.246Z,7.90
2019-04-26T22:40:19.680Z,12.33
2019-04-26T22:42:23.986Z,9.80
2019-04-26T22:44:50.285Z,9.43
2019-04-26T22:47:14.765Z,10.00
2019-04-26T22:49:19.659Z,11.73
2019-04-26T22:51:24.500Z,10.30
2019-04-26T22:53:28.311Z,9.33
2019-04-26T22:55:33.439Z,8.80
2019-04-26T22:57:37.299Z,10.10
2019-04-26T22:59:45.615Z,11.00
2019-04-26T23:01:48.853Z,10.83
2019-04-26T23:03:53.242Z,10.23
2019-04-26T23:05:59.188Z,10.43
2019-04-26T23:08:03.397Z,13.83
2019-04-26T23:10:09.406Z,11.00
2019-04-26T23:12:30.957Z,13.07
2019-04-26T23:14:48.253Z,9.87
2019-04-26T23:17:17.448Z,10.97
2019-04-26T23:19:33.528Z,11.73
2019-04-26T23:21:45.498Z,11.43
2019-04-26T23:23:45.806Z,11.30
2019-04-26T23:25:50.563Z,14.07
2019-04-26T23:27:58.251Z,10.97
2019-04-26T23:30:00.916Z,11.10
2019-04-26T23:32:05.805Z,8.50
2019-04-26T23:34:09.543Z,10.27
2019-04-26T23:36:13.734Z,11.30
2019-04-26T23:38:17.465Z,12.27
2019-04-26T23:40:25.674Z,11.23
2019-04-26T23:42:27.998Z,14.47
2019-04-26T23:44:33.119Z,10.13
2019-04-26T23:46:37.080Z,12.00
2019-04-26T23:48:42.729Z,10.33
2019-04-26T23:50:47.464Z,11.57
2019-04-26T23:52:52.952Z,11.33
2019-04-26T23:54:57.807Z,10.73
2019-04-26T23:57:02.885Z,11.70
2019-04-26T23:59:06.644Z,11.87
